sensor_id;sensor_type;location;lat;lon;timestamp;temperature;humidity
23669;DHT22;12011;47.422;15.018;2023-04-24T00:00:15;8.80;99.90
23669;DHT22;12011;47.422;15.018;2023-04-24T00:02:48;8.80;99.90
23669;DHT22;12011;47.422;15.018;2023-04-24T00:05:18;8.80;99.90
23669;DHT22;12011;47.422;15.018;2023-04-24T00:07:52;8.80;99.90
23669;DHT22;12011;47.422;15.018;2023-04-24T00:10:24;8.80;99.90
23669;DHT22;12011;47.422;15.018;2023-04-24T00:12:57;8.80;99.90
23669;DHT22;12011;47.422;15.018;2023-04-24T00:15:28;8.70;99.90
23669;DHT22;12011;47.422;15.018;2023-04-24T00:18:01;8.70;99.90
23669;DHT22;12011;47.422;15.018;2023-04-24T00:20:31;8.60;99.90
23669;DHT22;12011;47.422;15.018;2023-04-24T00:23:20;8.60;99.90
23669;DHT22;12011;47.422;15.018;2023-04-24T00:26:03;8.60;99.90
23669;DHT22;12011;47.422;15.018;2023-04-24T00:28:37;8.70;99.90
23669;DHT22;12011;47.422;15.018;2023-04-24T00:31:15;8.60;99.90
23669;DHT22;12011;47.422;15.018;2023-04-24T00:33:45;8.70;99.90
23669;DHT22;12011;47.422;15.018;2023-04-24T00:36:32;8.70;99.90
23669;DHT22;12011;47.422;15.018;2023-04-24T00:39:05;8.70;99.90
23669;DHT22;12011;47.422;15.018;2023-04-24T00:41:37;8.70;99.90
23669;DHT22;12011;47.422;15.018;2023-04-24T00:44:14;8.80;99.90
23669;DHT22;12011;47.422;15.018;2023-04-24T00:46:47;8.80;99.90
23669;DHT22;12011;47.422;15.018;2023-04-24T00:49:22;8.80;99.90
23669;DHT22;12011;47.422;15.018;2023-04-24T00:51:53;8.80;99.90
23669;DHT22;12011;47.422;15.018;2023-04-24T00:54:33;8.80;99.90
23669;DHT22;12011;47.422;15.018;2023-04-24T00:57:04;8.80;99.90
23669;DHT22;12011;47.422;15.018;2023-04-24T00:59:38;8.80;99.90
23669;DHT22;12011;47.422;15.018;2023-04-24T01:02:11;8.80;99.90
23669;DHT22;12011;47.422;15.018;2023-04-24T01:04:42;8.80;99.90
23669;DHT22;12011;47.422;15.018;2023-04-24T01:07:14;8.80;99.90
23669;DHT22;12011;47.422;15.018;2023-04-24T01:09:52;8.90;99.90
23669;DHT22;12011;47.422;15.018;2023-04-24T01:12:29;8.90;99.90
23669;DHT22;12011;47.422;15.018;2023-04-24T01:15:01;8.90;99.90
23669;DHT22;12011;47.422;15.018;2023-04-24T01:17:35;8.90;99.90
23669;DHT22;12011;47.422;15.018;2023-04-24T01:20:10;8.90;99.90
23669;DHT22;12011;47.422;15.018;2023-04-24T01:22:47;8.90;99.90
23669;DHT22;12011;47.422;15.018;2023-04-24T01:25:23;8.80;99.90
23669;DHT22;12011;47.422;15.018;2023-04-24T01:28:02;8.80;99.90
23669;DHT22;12011;47.422;15.018;2023-04-24T01:30:39;8.80;99.90
23669;DHT22;12011;47.422;15.018;2023-04-24T01:33:17;8.80;99.90
23669;DHT22;12011;47.422;15.018;2023-04-24T01:35:55;8.80;99.90
23669;DHT22;12011;47.422;15.018;2023-04-24T01:38:29;8.80;99.90
23669;DHT22;12011;47.422;15.018;2023-04-24T01:40:59;8.80;99.90
23669;DHT22;12011;47.422;15.018;2023-04-24T01:43:40;8.70;99.90
23669;DHT22;12011;47.422;15.018;2023-04-24T01:46:17;8.70;99.90
23669;DHT22;12011;47.422;15.018;2023-04-24T01:48:48;8.70;99.90
23669;DHT22;12011;47.422;15.018;2023-04-24T01:51:24;8.70;99.90
23669;DHT22;12011;47.422;15.018;2023-04-24T01:54:01;8.80;99.90
23669;DHT22;12011;47.422;15.018;2023-04-24T01:56:36;8.80;99.90
23669;DHT22;12011;47.422;15.018;2023-04-24T01:59:12;8.70;99.90
23669;DHT22;12011;47.422;15.018;2023-04-24T02:01:47;8.70;99.90
23669;DHT22;12011;47.422;15.018;2023-04-24T02:04:20;8.60;99.90
23669;DHT22;12011;47.422;15.018;2023-04-24T02:06:54;8.60;99.90
23669;DHT22;12011;47.422;15.018;2023-04-24T02:09:46;8.60;99.90
23669;DHT22;12011;47.422;15.018;2023-04-24T02:12:22;8.50;99.90
23669;DHT22;12011;47.422;15.018;2023-04-24T02:14:57;8.50;99.90
23669;DHT22;12011;47.422;15.018;2023-04-24T02:17:31;8.50;99.90
23669;DHT22;12011;47.422;15.018;2023-04-24T02:20:20;8.50;99.90
23669;DHT22;12011;47.422;15.018;2023-04-24T02:22:50;8.60;99.90
23669;DHT22;12011;47.422;15.018;2023-04-24T02:25:25;8.60;99.90
23669;DHT22;12011;47.422;15.018;2023-04-24T02:28:01;8.60;99.90
23669;DHT22;12011;47.422;15.018;2023-04-24T02:30:33;8.60;99.90
23669;DHT22;12011;47.422;15.018;2023-04-24T02:33:04;8.60;99.90
23669;DHT22;12011;47.422;15.018;2023-04-24T02:35:34;8.60;99.90
23669;DHT22;12011;47.422;15.018;2023-04-24T02:38:11;8.70;99.90
23669;DHT22;12011;47.422;15.018;2023-04-24T02:40:53;8.70;99.90
23669;DHT22;12011;47.422;15.018;2023-04-24T02:43:23;8.70;99.90
23669;DHT22;12011;47.422;15.018;2023-04-24T02:45:56;8.60;99.90
23669;DHT22;12011;47.422;15.018;2023-04-24T02:48:31;8.60;99.90
23669;DHT22;12011;47.422;15.018;2023-04-24T02:51:07;8.60;99.90
23669;DHT22;12011;47.422;15.018;2023-04-24T02:53:39;8.30;99.90
23669;DHT22;12011;47.422;15.018;2023-04-24T02:56:12;8.60;99.90
23669;DHT22;12011;47.422;15.018;2023-04-24T02:58:50;8.60;99.90
23669;DHT22;12011;47.422;15.018;2023-04-24T03:01:21;8.60;99.90
23669;DHT22;12011;47.422;15.018;2023-04-24T03:03:53;8.60;99.90
23669;DHT22;12011;47.422;15.018;2023-04-24T03:06:25;8.60;99.90
23669;DHT22;12011;47.422;15.018;2023-04-24T03:08:58;8.50;99.90
23669;DHT22;12011;47.422;15.018;2023-04-24T03:11:34;8.60;99.90
23669;DHT22;12011;47.422;15.018;2023-04-24T03:14:08;8.60;99.90
23669;DHT22;12011;47.422;15.018;2023-04-24T03:16:44;8.60;99.90
23669;DHT22;12011;47.422;15.018;2023-04-24T03:19:15;8.60;99.90
23669;DHT22;12011;47.422;15.018;2023-04-24T03:21:57;8.60;99.90
23669;DHT22;12011;47.422;15.018;2023-04-24T03:24:32;8.60;99.90
23669;DHT22;12011;47.422;15.018;2023-04-24T03:27:18;8.60;99.90
23669;DHT22;12011;47.422;15.018;2023-04-24T03:30:01;8.60;99.90
23669;DHT22;12011;47.422;15.018;2023-04-24T03:32:43;8.60;99.90
23669;DHT22;12011;47.422;15.018;2023-04-24T03:35:23;8.50;99.90
23669;DHT22;12011;47.422;15.018;2023-04-24T03:37:59;8.50;99.90
23669;DHT22;12011;47.422;15.018;2023-04-24T03:40:50;8.50;99.90
23669;DHT22;12011;47.422;15.018;2023-04-24T03:43:44;8.40;99.90
23669;DHT22;12011;47.422;15.018;2023-04-24T03:46:15;8.40;99.90
23669;DHT22;12011;47.422;15.018;2023-04-24T03:48:53;8.30;99.90
23669;DHT22;12011;47.422;15.018;2023-04-24T03:51:29;8.30;99.90
23669;DHT22;12011;47.422;15.018;2023-04-24T03:54:11;8.30;99.90
23669;DHT22;12011;47.422;15.018;2023-04-24T03:56:41;8.20;99.90
23669;DHT22;12011;47.422;15.018;2023-04-24T03:59:19;8.20;99.90
23669;DHT22;12011;47.422;15.018;2023-04-24T04:02:21;8.10;99.90
23669;DHT22;12011;47.422;15.018;2023-04-24T04:04:56;8.00;99.90
23669;DHT22;12011;47.422;15.018;2023-04-24T04:07:31;8.00;99.90
23669;DHT22;12011;47.422;15.018;2023-04-24T04:10:13;7.90;99.90
23669;DHT22;12011;47.422;15.018;2023-04-24T04:12:50;7.80;99.90
23669;DHT22;12011;47.422;15.018;2023-04-24T04:15:37;7.80;99.90
23669;DHT22;12011;47.422;15.018;2023-04-24T04:18:12;7.80;99.90
23669;DHT22;12011;47.422;15.018;2023-04-24T04:20:42;7.90;99.90
23669;DHT22;12011;47.422;15.018;2023-04-24T04:23:23;7.70;99.90
23669;DHT22;12011;47.422;15.018;2023-04-24T04:26:22;7.60;99.90
23669;DHT22;12011;47.422;15.018;2023-04-24T04:29:05;7.70;99.90
23669;DHT22;12011;47.422;15.018;2023-04-24T04:31:42;7.70;99.90
23669;DHT22;12011;47.422;15.018;2023-04-24T04:34:14;7.70;99.90
23669;DHT22;12011;47.422;15.018;2023-04-24T04:36:53;7.80;99.90
23669;DHT22;12011;47.422;15.018;2023-04-24T04:39:47;7.90;99.90
23669;DHT22;12011;47.422;15.018;2023-04-24T04:42:25;8.10;99.90
23669;DHT22;12011;47.422;15.018;2023-04-24T04:45:01;8.20;99.90
23669;DHT22;12011;47.422;15.018;2023-04-24T04:47:50;8.40;99.90
23669;DHT22;12011;47.422;15.018;2023-04-24T04:50:21;8.60;99.90
23669;DHT22;12011;47.422;15.018;2023-04-24T04:53:01;8.70;99.90
23669;DHT22;12011;47.422;15.018;2023-04-24T04:55:38;8.80;99.90
23669;DHT22;12011;47.422;15.018;2023-04-24T04:58:17;8.70;99.90
23669;DHT22;12011;47.422;15.018;2023-04-24T05:00:56;8.80;99.90
23669;DHT22;12011;47.422;15.018;2023-04-24T05:03:44;8.80;99.90
23669;DHT22;12011;47.422;15.018;2023-04-24T05:06:33;8.90;99.90
23669;DHT22;12011;47.422;15.018;2023-04-24T05:09:17;8.90;99.90
23669;DHT22;12011;47.422;15.018;2023-04-24T05:11:54;8.90;99.90
23669;DHT22;12011;47.422;15.018;2023-04-24T05:14:25;9.00;99.90
23669;DHT22;12011;47.422;15.018;2023-04-24T05:16:55;9.00;99.90
23669;DHT22;12011;47.422;15.018;2023-04-24T05:19:29;9.00;99.90
23669;DHT22;12011;47.422;15.018;2023-04-24T05:21:59;9.00;99.90
23669;DHT22;12011;47.422;15.018;2023-04-24T05:24:30;9.00;99.90
23669;DHT22;12011;47.422;15.018;2023-04-24T05:27:06;9.00;99.90
23669;DHT22;12011;47.422;15.018;2023-04-24T05:29:40;9.00;99.90
23669;DHT22;12011;47.422;15.018;2023-04-24T05:32:09;9.00;99.90
23669;DHT22;12011;47.422;15.018;2023-04-24T05:34:42;9.00;99.90
23669;DHT22;12011;47.422;15.018;2023-04-24T05:37:13;9.00;99.90
23669;DHT22;12011;47.422;15.018;2023-04-24T05:39:43;9.00;99.90
23669;DHT22;12011;47.422;15.018;2023-04-24T05:42:13;9.00;99.90
23669;DHT22;12011;47.422;15.018;2023-04-24T05:44:42;8.90;99.90
23669;DHT22;12011;47.422;15.018;2023-04-24T05:47:12;8.90;99.90
23669;DHT22;12011;47.422;15.018;2023-04-24T05:49:45;8.90;99.90
23669;DHT22;12011;47.422;15.018;2023-04-24T05:52:14;8.90;99.90
23669;DHT22;12011;47.422;15.018;2023-04-24T05:54:44;8.90;99.90
23669;DHT22;12011;47.422;15.018;2023-04-24T05:57:19;8.90;99.90
23669;DHT22;12011;47.422;15.018;2023-04-24T05:59:54;8.90;99.90
23669;DHT22;12011;47.422;15.018;2023-04-24T06:02:25;9.00;99.90
23669;DHT22;12011;47.422;15.018;2023-04-24T06:05:02;9.00;99.90
23669;DHT22;12011;47.422;15.018;2023-04-24T06:07:32;9.00;99.90
23669;DHT22;12011;47.422;15.018;2023-04-24T06:10:05;9.00;99.90
23669;DHT22;12011;47.422;15.018;2023-04-24T06:12:41;9.00;99.90
23669;DHT22;12011;47.422;15.018;2023-04-24T06:15:16;9.00;99.90
23669;DHT22;12011;47.422;15.018;2023-04-24T06:18:06;9.00;99.90
23669;DHT22;12011;47.422;15.018;2023-04-24T06:20:39;9.00;99.90
23669;DHT22;12011;47.422;15.018;2023-04-24T06:23:09;9.00;99.90
23669;DHT22;12011;47.422;15.018;2023-04-24T06:25:39;9.00;99.90
23669;DHT22;12011;47.422;15.018;2023-04-24T06:28:11;9.00;99.90
23669;DHT22;12011;47.422;15.018;2023-04-24T06:30:41;9.00;99.90
23669;DHT22;12011;47.422;15.018;2023-04-24T06:33:11;9.00;99.90
23669;DHT22;12011;47.422;15.018;2023-04-24T06:35:45;9.10;99.90
23669;DHT22;12011;47.422;15.018;2023-04-24T06:38:14;9.00;99.90
23669;DHT22;12011;47.422;15.018;2023-04-24T06:40:44;9.10;99.90
23669;DHT22;12011;47.422;15.018;2023-04-24T06:43:14;9.00;99.90
23669;DHT22;12011;47.422;15.018;2023-04-24T06:45:44;9.00;99.90
23669;DHT22;12011;47.422;15.018;2023-04-24T06:48:14;9.00;99.90
23669;DHT22;12011;47.422;15.018;2023-04-24T06:50:46;9.10;99.90
23669;DHT22;12011;47.422;15.018;2023-04-24T06:53:15;9.10;99.90
23669;DHT22;12011;47.422;15.018;2023-04-24T06:55:45;9.10;99.90
23669;DHT22;12011;47.422;15.018;2023-04-24T06:58:14;9.10;99.90
23669;DHT22;12011;47.422;15.018;2023-04-24T07:00:44;9.10;99.90
23669;DHT22;12011;47.422;15.018;2023-04-24T07:03:14;9.20;99.90
23669;DHT22;12011;47.422;15.018;2023-04-24T07:05:46;9.20;99.90
23669;DHT22;12011;47.422;15.018;2023-04-24T07:08:15;9.20;99.90
23669;DHT22;12011;47.422;15.018;2023-04-24T07:10:46;9.30;99.90
23669;DHT22;12011;47.422;15.018;2023-04-24T07:13:17;9.30;99.90
23669;DHT22;12011;47.422;15.018;2023-04-24T07:15:47;9.40;99.90
23669;DHT22;12011;47.422;15.018;2023-04-24T07:18:20;9.40;99.90
23669;DHT22;12011;47.422;15.018;2023-04-24T07:20:52;9.40;99.90
23669;DHT22;12011;47.422;15.018;2023-04-24T07:23:22;9.50;99.90
23669;DHT22;12011;47.422;15.018;2023-04-24T07:25:52;9.50;99.90
23669;DHT22;12011;47.422;15.018;2023-04-24T07:28:21;9.60;99.90
23669;DHT22;12011;47.422;15.018;2023-04-24T07:30:51;9.50;99.90
23669;DHT22;12011;47.422;15.018;2023-04-24T07:33:21;9.60;99.90
23669;DHT22;12011;47.422;15.018;2023-04-24T07:35:53;9.80;99.90
23669;DHT22;12011;47.422;15.018;2023-04-24T07:38:23;9.80;99.90
23669;DHT22;12011;47.422;15.018;2023-04-24T07:40:52;9.90;99.90
23669;DHT22;12011;47.422;15.018;2023-04-24T07:43:22;10.00;99.90
23669;DHT22;12011;47.422;15.018;2023-04-24T07:45:52;10.10;99.90
23669;DHT22;12011;47.422;15.018;2023-04-24T07:48:21;10.20;99.90
23669;DHT22;12011;47.422;15.018;2023-04-24T07:50:55;10.30;99.90
23669;DHT22;12011;47.422;15.018;2023-04-24T07:53:24;10.30;99.90
23669;DHT22;12011;47.422;15.018;2023-04-24T07:55:54;10.40;99.90
23669;DHT22;12011;47.422;15.018;2023-04-24T07:58:24;10.30;99.90
23669;DHT22;12011;47.422;15.018;2023-04-24T08:00:54;10.30;99.90
23669;DHT22;12011;47.422;15.018;2023-04-24T08:03:23;10.30;99.90
23669;DHT22;12011;47.422;15.018;2023-04-24T08:05:55;10.40;99.90
23669;DHT22;12011;47.422;15.018;2023-04-24T08:08:25;10.50;99.90
23669;DHT22;12011;47.422;15.018;2023-04-24T08:10:54;10.70;99.90
23669;DHT22;12011;47.422;15.018;2023-04-24T08:13:24;10.80;99.90
23669;DHT22;12011;47.422;15.018;2023-04-24T08:15:53;10.90;99.90
23669;DHT22;12011;47.422;15.018;2023-04-24T08:18:23;11.10;99.90
23669;DHT22;12011;47.422;15.018;2023-04-24T08:20:55;11.30;99.90
23669;DHT22;12011;47.422;15.018;2023-04-24T08:23:27;11.50;99.90
23669;DHT22;12011;47.422;15.018;2023-04-24T08:25:57;11.60;99.90
23669;DHT22;12011;47.422;15.018;2023-04-24T08:28:26;11.60;99.90
23669;DHT22;12011;47.422;15.018;2023-04-24T08:30:56;12.00;99.90
23669;DHT22;12011;47.422;15.018;2023-04-24T08:33:25;12.30;99.90
23669;DHT22;12011;47.422;15.018;2023-04-24T08:36:03;12.60;99.90
23669;DHT22;12011;47.422;15.018;2023-04-24T08:38:33;12.80;99.90
23669;DHT22;12011;47.422;15.018;2023-04-24T08:41:03;13.00;99.90
23669;DHT22;12011;47.422;15.018;2023-04-24T08:43:37;13.40;99.90
23669;DHT22;12011;47.422;15.018;2023-04-24T08:46:15;13.80;99.30
23669;DHT22;12011;47.422;15.018;2023-04-24T08:48:46;14.10;97.00
23669;DHT22;12011;47.422;15.018;2023-04-24T08:51:18;14.40;98.40
23669;DHT22;12011;47.422;15.018;2023-04-24T08:53:49;14.90;95.20
23669;DHT22;12011;47.422;15.018;2023-04-24T08:56:22;15.20;91.90
23669;DHT22;12011;47.422;15.018;2023-04-24T08:58:53;15.60;90.90
23669;DHT22;12011;47.422;15.018;2023-04-24T09:01:25;15.80;95.10
23669;DHT22;12011;47.422;15.018;2023-04-24T09:03:56;16.00;90.90
23669;DHT22;12011;47.422;15.018;2023-04-24T09:06:28;15.80;83.30
23669;DHT22;12011;47.422;15.018;2023-04-24T09:09:01;16.10;79.90
23669;DHT22;12011;47.422;15.018;2023-04-24T09:11:32;16.20;94.80
23669;DHT22;12011;47.422;15.018;2023-04-24T09:14:02;15.50;92.30
23669;DHT22;12011;47.422;15.018;2023-04-24T09:16:31;15.40;80.50
23669;DHT22;12011;47.422;15.018;2023-04-24T09:19:01;15.40;91.80
23669;DHT22;12011;47.422;15.018;2023-04-24T09:21:35;15.60;89.80
23669;DHT22;12011;47.422;15.018;2023-04-24T09:24:08;15.50;86.40
23669;DHT22;12011;47.422;15.018;2023-04-24T09:26:46;15.10;85.10
23669;DHT22;12011;47.422;15.018;2023-04-24T09:29:18;15.40;89.50
23669;DHT22;12011;47.422;15.018;2023-04-24T09:31:48;15.20;89.00
23669;DHT22;12011;47.422;15.018;2023-04-24T09:34:22;14.90;90.50
23669;DHT22;12011;47.422;15.018;2023-04-24T09:36:55;14.90;91.50
23669;DHT22;12011;47.422;15.018;2023-04-24T09:39:24;14.70;90.10
23669;DHT22;12011;47.422;15.018;2023-04-24T09:41:56;14.50;93.30
23669;DHT22;12011;47.422;15.018;2023-04-24T09:44:29;14.50;92.60
23669;DHT22;12011;47.422;15.018;2023-04-24T09:47:00;14.10;94.60
23669;DHT22;12011;47.422;15.018;2023-04-24T09:49:36;14.20;92.40
23669;DHT22;12011;47.422;15.018;2023-04-24T09:52:11;14.30;92.50
23669;DHT22;12011;47.422;15.018;2023-04-24T09:54:40;14.30;95.60
23669;DHT22;12011;47.422;15.018;2023-04-24T09:57:10;14.40;92.70
23669;DHT22;12011;47.422;15.018;2023-04-24T09:59:43;14.20;91.20
23669;DHT22;12011;47.422;15.018;2023-04-24T10:02:19;14.20;92.90
23669;DHT22;12011;47.422;15.018;2023-04-24T10:04:55;14.10;94.10
23669;DHT22;12011;47.422;15.018;2023-04-24T10:07:28;14.40;99.90
23669;DHT22;12011;47.422;15.018;2023-04-24T10:09:58;14.20;86.60
23669;DHT22;12011;47.422;15.018;2023-04-24T10:12:34;14.10;84.40
23669;DHT22;12011;47.422;15.018;2023-04-24T10:15:07;13.90;90.40
23669;DHT22;12011;47.422;15.018;2023-04-24T10:17:50;14.00;91.10
23669;DHT22;12011;47.422;15.018;2023-04-24T10:20:22;14.00;91.80
23669;DHT22;12011;47.422;15.018;2023-04-24T10:22:59;14.00;92.90
23669;DHT22;12011;47.422;15.018;2023-04-24T10:25:31;14.00;90.30
23669;DHT22;12011;47.422;15.018;2023-04-24T10:28:03;13.90;94.20
23669;DHT22;12011;47.422;15.018;2023-04-24T10:30:37;13.50;90.30
23669;DHT22;12011;47.422;15.018;2023-04-24T10:33:15;13.90;90.10
23669;DHT22;12011;47.422;15.018;2023-04-24T10:35:51;14.00;86.60
23669;DHT22;12011;47.422;15.018;2023-04-24T10:38:38;14.10;91.50
23669;DHT22;12011;47.422;15.018;2023-04-24T10:41:13;14.00;87.40
23669;DHT22;12011;47.422;15.018;2023-04-24T10:43:47;14.20;92.60
23669;DHT22;12011;47.422;15.018;2023-04-24T10:46:24;14.10;90.60
23669;DHT22;12011;47.422;15.018;2023-04-24T10:49:08;14.20;82.20
23669;DHT22;12011;47.422;15.018;2023-04-24T10:51:47;14.40;90.00
23669;DHT22;12011;47.422;15.018;2023-04-24T10:54:33;14.50;87.20
23669;DHT22;12011;47.422;15.018;2023-04-24T10:57:27;14.50;83.10
23669;DHT22;12011;47.422;15.018;2023-04-24T11:00:19;14.80;90.80
23669;DHT22;12011;47.422;15.018;2023-04-24T11:02:52;14.90;91.80
23669;DHT22;12011;47.422;15.018;2023-04-24T11:05:51;14.80;73.90
23669;DHT22;12011;47.422;15.018;2023-04-24T11:08:34;14.70;90.50
23669;DHT22;12011;47.422;15.018;2023-04-24T11:11:15;14.70;93.40
23669;DHT22;12011;47.422;15.018;2023-04-24T11:14:06;14.60;69.70
23669;DHT22;12011;47.422;15.018;2023-04-24T11:16:53;14.70;83.40
23669;DHT22;12011;47.422;15.018;2023-04-24T11:19:25;14.80;75.70
23669;DHT22;12011;47.422;15.018;2023-04-24T11:22:05;15.00;80.30
23669;DHT22;12011;47.422;15.018;2023-04-24T11:24:58;14.70;87.50
23669;DHT22;12011;47.422;15.018;2023-04-24T11:27:41;14.90;82.10
23669;DHT22;12011;47.422;15.018;2023-04-24T11:30:18;14.90;68.50
23669;DHT22;12011;47.422;15.018;2023-04-24T11:32:53;14.80;82.50
23669;DHT22;12011;47.422;15.018;2023-04-24T11:35:35;14.90;74.40
23669;DHT22;12011;47.422;15.018;2023-04-24T11:38:12;14.90;77.50
23669;DHT22;12011;47.422;15.018;2023-04-24T11:40:43;15.00;77.60
23669;DHT22;12011;47.422;15.018;2023-04-24T11:43:18;15.10;83.30
23669;DHT22;12011;47.422;15.018;2023-04-24T11:45:50;15.30;63.30
23669;DHT22;12011;47.422;15.018;2023-04-24T11:48:28;15.60;72.40
23669;DHT22;12011;47.422;15.018;2023-04-24T11:51:02;15.80;76.20
23669;DHT22;12011;47.422;15.018;2023-04-24T11:53:33;16.10;77.10
23669;DHT22;12011;47.422;15.018;2023-04-24T11:56:05;16.30;62.60
23669;DHT22;12011;47.422;15.018;2023-04-24T11:58:44;16.60;56.20
23669;DHT22;12011;47.422;15.018;2023-04-24T12:01:18;16.80;54.80
23669;DHT22;12011;47.422;15.018;2023-04-24T12:03:58;16.90;55.00
23669;DHT22;12011;47.422;15.018;2023-04-24T12:06:31;16.70;60.60
23669;DHT22;12011;47.422;15.018;2023-04-24T12:09:05;16.80;66.30
23669;DHT22;12011;47.422;15.018;2023-04-24T12:11:52;16.00;55.10
23669;DHT22;12011;47.422;15.018;2023-04-24T12:14:25;16.10;59.80
23669;DHT22;12011;47.422;15.018;2023-04-24T12:16:55;16.30;60.60
23669;DHT22;12011;47.422;15.018;2023-04-24T12:19:25;16.10;53.30
23669;DHT22;12011;47.422;15.018;2023-04-24T12:22:00;15.80;52.50
23669;DHT22;12011;47.422;15.018;2023-04-24T12:24:30;16.00;55.90
23669;DHT22;12011;47.422;15.018;2023-04-24T12:26:59;16.00;58.10
23669;DHT22;12011;47.422;15.018;2023-04-24T12:29:32;15.60;56.00
23669;DHT22;12011;47.422;15.018;2023-04-24T12:32:02;15.30;61.30
23669;DHT22;12011;47.422;15.018;2023-04-24T12:34:31;15.30;62.70
23669;DHT22;12011;47.422;15.018;2023-04-24T12:37:10;15.20;65.40
23669;DHT22;12011;47.422;15.018;2023-04-24T12:39:57;14.80;63.50
23669;DHT22;12011;47.422;15.018;2023-04-24T12:42:29;14.70;64.40
23669;DHT22;12011;47.422;15.018;2023-04-24T12:45:05;14.80;61.20
23669;DHT22;12011;47.422;15.018;2023-04-24T12:47:39;14.70;72.80
23669;DHT22;12011;47.422;15.018;2023-04-24T12:50:11;14.60;68.70
23669;DHT22;12011;47.422;15.018;2023-04-24T12:52:43;14.90;90.10
23669;DHT22;12011;47.422;15.018;2023-04-24T12:55:13;14.90;77.10
23669;DHT22;12011;47.422;15.018;2023-04-24T12:57:43;14.90;62.90
23669;DHT22;12011;47.422;15.018;2023-04-24T13:00:16;14.70;69.30
23669;DHT22;12011;47.422;15.018;2023-04-24T13:02:46;15.00;74.60
23669;DHT22;12011;47.422;15.018;2023-04-24T13:05:16;15.10;57.00
23669;DHT22;12011;47.422;15.018;2023-04-24T13:07:45;15.10;64.10
23669;DHT22;12011;47.422;15.018;2023-04-24T13:10:15;14.70;69.00
23669;DHT22;12011;47.422;15.018;2023-04-24T13:12:45;14.70;76.50
23669;DHT22;12011;47.422;15.018;2023-04-24T13:15:17;15.10;84.40
23669;DHT22;12011;47.422;15.018;2023-04-24T13:17:47;15.10;73.30
23669;DHT22;12011;47.422;15.018;2023-04-24T13:20:17;14.90;71.70
23669;DHT22;12011;47.422;15.018;2023-04-24T13:22:47;14.60;73.40
23669;DHT22;12011;47.422;15.018;2023-04-24T13:25:16;14.90;69.80
23669;DHT22;12011;47.422;15.018;2023-04-24T13:27:46;15.10;70.60
23669;DHT22;12011;47.422;15.018;2023-04-24T13:30:19;15.20;69.20
23669;DHT22;12011;47.422;15.018;2023-04-24T13:32:49;15.20;70.80
23669;DHT22;12011;47.422;15.018;2023-04-24T13:35:18;15.30;69.10
23669;DHT22;12011;47.422;15.018;2023-04-24T13:37:48;15.40;74.70
23669;DHT22;12011;47.422;15.018;2023-04-24T13:40:18;15.30;70.00
23669;DHT22;12011;47.422;15.018;2023-04-24T13:42:47;15.30;62.20
23669;DHT22;12011;47.422;15.018;2023-04-24T13:45:20;15.30;63.30
23669;DHT22;12011;47.422;15.018;2023-04-24T13:47:49;15.40;62.20
23669;DHT22;12011;47.422;15.018;2023-04-24T13:50:20;15.40;63.40
23669;DHT22;12011;47.422;15.018;2023-04-24T13:52:49;15.40;62.10
23669;DHT22;12011;47.422;15.018;2023-04-24T13:55:20;15.60;68.40
23669;DHT22;12011;47.422;15.018;2023-04-24T13:57:49;15.30;63.00
23669;DHT22;12011;47.422;15.018;2023-04-24T14:00:24;15.30;62.40
23669;DHT22;12011;47.422;15.018;2023-04-24T14:02:54;14.80;52.50
23669;DHT22;12011;47.422;15.018;2023-04-24T14:05:23;14.60;52.70
23669;DHT22;12011;47.422;15.018;2023-04-24T14:07:53;14.60;67.70
23669;DHT22;12011;47.422;15.018;2023-04-24T14:10:22;14.30;68.60
23669;DHT22;12011;47.422;15.018;2023-04-24T14:12:53;13.90;66.70
23669;DHT22;12011;47.422;15.018;2023-04-24T14:15:25;13.70;65.60
23669;DHT22;12011;47.422;15.018;2023-04-24T14:17:55;13.50;70.30
23669;DHT22;12011;47.422;15.018;2023-04-24T14:20:24;13.60;66.10
23669;DHT22;12011;47.422;15.018;2023-04-24T14:22:54;13.60;72.90
23669;DHT22;12011;47.422;15.018;2023-04-24T14:25:25;13.50;77.40
23669;DHT22;12011;47.422;15.018;2023-04-24T14:27:54;13.50;76.10
23669;DHT22;12011;47.422;15.018;2023-04-24T14:30:27;13.10;68.20
23669;DHT22;12011;47.422;15.018;2023-04-24T14:32:56;13.00;76.20
23669;DHT22;12011;47.422;15.018;2023-04-24T14:35:26;12.50;76.50
23669;DHT22;12011;47.422;15.018;2023-04-24T14:37:57;12.20;77.40
23669;DHT22;12011;47.422;15.018;2023-04-24T14:40:27;12.10;72.60
23669;DHT22;12011;47.422;15.018;2023-04-24T14:42:57;11.90;78.40
23669;DHT22;12011;47.422;15.018;2023-04-24T14:45:29;11.60;71.00
23669;DHT22;12011;47.422;15.018;2023-04-24T14:47:59;11.50;81.20
23669;DHT22;12011;47.422;15.018;2023-04-24T14:50:28;11.50;77.20
23669;DHT22;12011;47.422;15.018;2023-04-24T14:52:58;11.70;86.30
23669;DHT22;12011;47.422;15.018;2023-04-24T14:55:28;11.70;71.60
23669;DHT22;12011;47.422;15.018;2023-04-24T14:57:59;11.60;76.10
23669;DHT22;12011;47.422;15.018;2023-04-24T15:00:31;11.70;75.30
23669;DHT22;12011;47.422;15.018;2023-04-24T15:03:01;11.80;73.20
23669;DHT22;12011;47.422;15.018;2023-04-24T15:05:31;11.90;70.70
23669;DHT22;12011;47.422;15.018;2023-04-24T15:08:00;12.00;72.10
23669;DHT22;12011;47.422;15.018;2023-04-24T15:10:30;12.10;71.30
23669;DHT22;12011;47.422;15.018;2023-04-24T15:12:59;12.30;66.30
23669;DHT22;12011;47.422;15.018;2023-04-24T15:15:32;12.30;70.90
23669;DHT22;12011;47.422;15.018;2023-04-24T15:18:01;12.30;68.90
23669;DHT22;12011;47.422;15.018;2023-04-24T15:20:31;12.40;62.20
23669;DHT22;12011;47.422;15.018;2023-04-24T15:23:01;12.40;70.10
23669;DHT22;12011;47.422;15.018;2023-04-24T15:25:30;12.40;67.20
23669;DHT22;12011;47.422;15.018;2023-04-24T15:28:00;12.40;63.60
23669;DHT22;12011;47.422;15.018;2023-04-24T15:30:33;12.50;67.80
23669;DHT22;12011;47.422;15.018;2023-04-24T15:33:03;12.60;61.90
23669;DHT22;12011;47.422;15.018;2023-04-24T15:35:33;12.60;63.00
23669;DHT22;12011;47.422;15.018;2023-04-24T15:38:03;12.60;64.20
23669;DHT22;12011;47.422;15.018;2023-04-24T15:40:32;12.70;58.70
23669;DHT22;12011;47.422;15.018;2023-04-24T15:43:02;12.60;56.50
23669;DHT22;12011;47.422;15.018;2023-04-24T15:45:34;12.40;54.60
23669;DHT22;12011;47.422;15.018;2023-04-24T15:48:04;12.40;63.70
23669;DHT22;12011;47.422;15.018;2023-04-24T15:50:33;12.40;72.40
23669;DHT22;12011;47.422;15.018;2023-04-24T15:53:03;12.40;60.20
23669;DHT22;12011;47.422;15.018;2023-04-24T15:55:32;12.50;72.80
23669;DHT22;12011;47.422;15.018;2023-04-24T15:58:02;12.50;75.60
23669;DHT22;12011;47.422;15.018;2023-04-24T16:00:34;12.50;71.70
23669;DHT22;12011;47.422;15.018;2023-04-24T16:03:04;12.60;61.00